createdAt,value
2024-05-09T00:00:41.486Z,10.40
2024-05-09T00:03:10.885Z,10.30
2024-05-09T00:05:41.597Z,10.30
2024-05-09T00:08:10.475Z,10.30
2024-05-09T00:10:39.895Z,10.30
2024-05-09T00:13:08.808Z,10.30
2024-05-09T00:15:36.813Z,10.30
2024-05-09T00:18:05.956Z,10.20
2024-05-09T00:20:38.808Z,10.20
2024-05-09T00:23:09.543Z,10.30
2024-05-09T00:25:38.127Z,10.30
2024-05-09T00:28:05.996Z,10.30
2024-05-09T00:30:35.985Z,10.30
2024-05-09T00:33:09.456Z,10.30
2024-05-09T00:35:38.402Z,10.20
2024-05-09T00:38:06.003Z,10.20
2024-05-09T00:40:41.023Z,10.20
2024-05-09T00:43:11.822Z,10.20
2024-05-09T00:45:39.669Z,10.20
2024-05-09T00:48:09.555Z,10.10
2024-05-09T00:50:40.790Z,10.10
2024-05-09T00:53:11.111Z,10.10
2024-05-09T00:55:39.789Z,10.10
2024-05-09T00:58:09.298Z,10.00
2024-05-09T01:00:39.975Z,10.00
2024-05-09T01:03:11.125Z,9.90
2024-05-09T01:05:40.593Z,9.90
2024-05-09T01:08:09.260Z,9.90
2024-05-09T01:10:37.664Z,9.80
2024-05-09T01:13:05.978Z,9.70
2024-05-09T01:15:35.179Z,9.70
2024-05-09T01:18:13.815Z,9.60
2024-05-09T01:20:44.113Z,9.50
2024-05-09T01:23:14.804Z,9.50
2024-05-09T01:25:44.360Z,9.40
2024-05-09T01:28:11.839Z,9.30
2024-05-09T01:30:39.089Z,9.20
2024-05-09T01:33:08.922Z,9.20
2024-05-09T01:35:39.264Z,9.10
2024-05-09T01:38:07.680Z,9.00
2024-05-09T01:40:38.812Z,9.00
2024-05-09T01:43:11.678Z,8.90
2024-05-09T01:45:40.350Z,8.80
2024-05-09T01:48:08.856Z,8.70
2024-05-09T01:50:40.259Z,8.60
2024-05-09T01:53:13.974Z,8.60
2024-05-09T01:55:42.300Z,8.50
2024-05-09T01:58:09.908Z,8.40
2024-05-09T02:00:41.091Z,8.30
2024-05-09T02:03:14.018Z,8.30
2024-05-09T02:05:48.171Z,8.20
2024-05-09T02:08:20.855Z,8.20
2024-05-09T02:10:49.955Z,8.10
2024-05-09T02:13:17.828Z,8.10
2024-05-09T02:15:45.192Z,7.90
2024-05-09T02:18:13.138Z,7.90
2024-05-09T02:20:41.963Z,7.90
2024-05-09T02:23:10.187Z,7.80
2024-05-09T02:25:37.480Z,7.80
2024-05-09T02:28:05.125Z,7.80
2024-05-09T02:30:40.309Z,7.70
2024-05-09T02:33:13.722Z,7.70
2024-05-09T02:35:43.648Z,7.60
2024-05-09T02:38:12.314Z,7.50
2024-05-09T02:40:40.559Z,7.50
2024-05-09T02:43:10.391Z,7.40
2024-05-09T02:45:39.362Z,7.40
2024-05-09T02:48:07.655Z,7.40
2024-05-09T02:50:39.093Z,7.40
2024-05-09T02:53:08.936Z,7.40
2024-05-09T02:55:37.026Z,7.30
2024-05-09T02:58:04.431Z,7.30
2024-05-09T03:00:38.390Z,7.40
2024-05-09T03:03:10.434Z,7.30
2024-05-09T03:05:40.064Z,7.30
2024-05-09T03:08:07.986Z,7.20
2024-05-09T03:10:37.540Z,7.20
2024-05-09T03:13:07.802Z,7.10
2024-05-09T03:15:35.082Z,7.10
2024-05-09T03:18:03.078Z,7.00
2024-05-09T03:20:34.375Z,7.00
2024-05-09T03:23:03.924Z,7.00
2024-05-09T03:25:31.495Z,7.00
2024-05-09T03:27:59.490Z,6.90
2024-05-09T03:30:38.961Z,6.90
2024-05-09T03:33:15.828Z,6.80
2024-05-09T03:35:44.351Z,6.80
2024-05-09T03:38:11.686Z,6.80
2024-05-09T03:40:49.015Z,6.80
2024-05-09T03:43:17.533Z,6.70
2024-05-09T03:45:45.374Z,6.70
2024-05-09T03:48:13.224Z,6.70
2024-05-09T03:50:40.888Z,6.60
2024-05-09T03:53:11.301Z,6.60
2024-05-09T03:55:39.271Z,6.60
2024-05-09T03:58:08.288Z,6.60
2024-05-09T04:00:39.199Z,6.50
2024-05-09T04:03:10.568Z,6.50
2024-05-09T04:05:44.640Z,6.50
2024-05-09T04:08:12.248Z,6.50
2024-05-09T04:10:39.503Z,6.50
2024-05-09T04:13:06.657Z,6.60
2024-05-09T04:15:33.976Z,6.60
2024-05-09T04:18:01.981Z,6.60
2024-05-09T04:20:37.539Z,6.70
2024-05-09T04:23:11.033Z,6.80
2024-05-09T04:25:38.552Z,6.80
2024-05-09T04:28:06.008Z,6.90
2024-05-09T04:30:38.414Z,7.00
2024-05-09T04:33:10.583Z,7.00
2024-05-09T04:35:40.024Z,7.00
2024-05-09T04:38:08.186Z,7.10
2024-05-09T04:40:37.119Z,7.20
2024-05-09T04:43:16.311Z,7.20
2024-05-09T04:45:43.616Z,7.40
2024-05-09T04:48:11.618Z,7.50
2024-05-09T04:50:39.951Z,7.50
2024-05-09T04:53:15.073Z,7.60
2024-05-09T04:55:42.453Z,7.60
2024-05-09T04:58:10.508Z,7.70
2024-05-09T05:00:40.201Z,7.80
2024-05-09T05:03:13.023Z,7.80
2024-05-09T05:05:43.618Z,8.00
2024-05-09T05:08:17.224Z,8.00
2024-05-09T05:10:45.828Z,8.10
2024-05-09T05:13:18.512Z,8.20
2024-05-09T05:15:47.500Z,8.40
2024-05-09T05:18:15.779Z,8.60
2024-05-09T05:20:43.255Z,8.70
2024-05-09T05:23:16.080Z,9.10
2024-05-09T05:25:43.928Z,11.20
2024-05-09T05:28:11.544Z,14.20
2024-05-09T05:30:39.435Z,17.10
2024-05-09T05:33:07.687Z,19.50
2024-05-09T05:35:35.278Z,21.40
2024-05-09T05:38:09.562Z,22.80
2024-05-09T05:40:38.580Z,24.00
2024-05-09T05:43:11.002Z,24.90
2024-05-09T05:45:39.226Z,25.70
2024-05-09T05:48:07.762Z,26.50
2024-05-09T05:50:37.624Z,27.00
2024-05-09T05:53:10.273Z,27.60
2024-05-09T05:55:39.415Z,28.20
2024-05-09T05:58:10.809Z,28.50
2024-05-09T06:00:40.290Z,28.80
2024-05-09T06:03:17.498Z,29.20
2024-05-09T06:05:46.296Z,29.30
2024-05-09T06:08:13.762Z,29.40
2024-05-09T06:10:41.893Z,29.80
2024-05-09T06:13:13.964Z,29.70
2024-05-09T06:15:42.546Z,29.60
2024-05-09T06:18:11.689Z,29.60
2024-05-09T06:20:42.825Z,29.60
2024-05-09T06:23:11.158Z,29.80
2024-05-09T06:25:38.738Z,30.30
2024-05-09T06:28:06.441Z,30.40
2024-05-09T06:30:40.180Z,30.50
2024-05-09T06:33:11.988Z,29.90
2024-05-09T06:35:41.297Z,29.30
2024-05-09T06:38:09.351Z,28.70
2024-05-09T06:40:40.551Z,28.50
2024-05-09T06:43:17.917Z,28.80
2024-05-09T06:45:48.477Z,28.50
2024-05-09T06:48:18.647Z,29.10
2024-05-09T06:50:46.687Z,29.20
2024-05-09T06:53:17.808Z,29.70
2024-05-09T06:55:45.246Z,29.40
2024-05-09T06:58:12.442Z,29.00
2024-05-09T07:00:41.666Z,28.50
2024-05-09T07:03:17.140Z,28.70
2024-05-09T07:05:47.551Z,29.10
2024-05-09T07:08:16.369Z,29.40
2024-05-09T07:10:43.942Z,29.10
2024-05-09T07:13:12.844Z,29.70
2024-05-09T07:15:42.740Z,30.20
2024-05-09T07:18:18.384Z,30.00
2024-05-09T07:20:47.642Z,29.20
2024-05-09T07:23:16.089Z,28.60
2024-05-09T07:25:43.615Z,27.10
2024-05-09T07:28:21.894Z,25.40
2024-05-09T07:30:49.060Z,25.40
2024-05-09T07:33:22.286Z,25.20
2024-05-09T07:35:50.906Z,24.30
2024-05-09T07:38:18.339Z,23.40
2024-05-09T07:40:45.688Z,23.50
2024-05-09T07:43:16.363Z,23.80
2024-05-09T07:45:51.891Z,23.50
2024-05-09T07:52:39.045Z,21.50
2024-05-09T07:53:47.464Z,20.90
2024-05-09T07:56:19.688Z,20.90
2024-05-09T07:58:50.983Z,21.10
2024-05-09T08:01:18.785Z,21.30
2024-05-09T08:03:46.647Z,21.20
2024-05-09T08:06:14.251Z,20.80
2024-05-09T08:08:41.672Z,20.40
2024-05-09T08:11:08.864Z,20.70
2024-05-09T08:13:37.581Z,21.20
2024-05-09T08:16:05.376Z,21.10
2024-05-09T08:18:33.082Z,20.80
2024-05-09T08:21:00.399Z,20.50
2024-05-09T08:23:28.918Z,20.70
2024-05-09T08:25:56.473Z,20.60
2024-05-09T08:28:23.925Z,19.90
2024-05-09T08:30:51.246Z,19.70
2024-05-09T08:33:18.645Z,19.30
2024-05-09T08:35:45.878Z,19.80
2024-05-09T08:38:13.268Z,20.30
2024-05-09T08:40:41.951Z,20.50
2024-05-09T08:43:11.806Z,20.30
2024-05-09T08:45:43.964Z,20.70
2024-05-09T08:48:15.124Z,20.80
2024-05-09T08:50:44.876Z,20.70
2024-05-09T08:53:16.355Z,20.90
2024-05-09T08:55:44.765Z,20.60
2024-05-09T08:58:19.902Z,20.40
2024-05-09T09:00:48.695Z,20.60
2024-05-09T09:03:19.512Z,20.90
2024-05-09T09:05:58.496Z,20.70
2024-05-09T09:08:26.585Z,20.50
2024-05-09T09:10:57.741Z,20.80
2024-05-09T09:13:25.347Z,20.90
2024-05-09T09:15:57.559Z,20.80
2024-05-09T09:18:26.929Z,20.50
2024-05-09T09:20:54.549Z,20.50
2024-05-09T09:23:22.146Z,20.30
2024-05-09T09:25:49.930Z,19.80
2024-05-09T09:28:17.219Z,20.20
2024-05-09T09:30:44.621Z,20.30
2024-05-09T09:33:12.417Z,20.00
2024-05-09T09:35:40.798Z,19.90
2024-05-09T09:38:10.658Z,19.90
2024-05-09T09:40:46.553Z,20.10
2024-05-09T09:43:20.684Z,19.80
2024-05-09T09:45:52.999Z,19.80
2024-05-09T09:48:22.767Z,19.20
2024-05-09T09:50:52.607Z,18.80
2024-05-09T09:53:20.177Z,18.70
2024-05-09T09:55:48.482Z,18.70
2024-05-09T09:58:18.031Z,18.70
2024-05-09T10:00:46.131Z,18.90
2024-05-09T10:03:13.639Z,19.50
2024-05-09T10:05:44.066Z,20.10
2024-05-09T10:08:14.935Z,20.30
2024-05-09T10:10:50.609Z,20.70
2024-05-09T10:13:20.137Z,21.00
2024-05-09T10:15:51.439Z,21.40
2024-05-09T10:18:28.358Z,21.50
2024-05-09T10:20:58.128Z,21.50
2024-05-09T10:23:28.919Z,22.20
2024-05-09T10:26:00.870Z,22.90
2024-05-09T10:28:32.059Z,23.50
2024-05-09T10:31:15.785Z,23.20
2024-05-09T10:33:51.864Z,22.40
2024-05-09T10:36:21.020Z,22.10
2024-05-09T10:38:53.168Z,22.10
2024-05-09T10:41:21.427Z,22.60
2024-05-09T10:43:49.084Z,22.20
2024-05-09T10:46:16.965Z,22.00
2024-05-09T10:48:44.959Z,21.00
2024-05-09T10:51:13.476Z,20.60
2024-05-09T10:53:42.653Z,21.00
2024-05-09T10:56:10.720Z,21.50
2024-05-09T10:58:37.868Z,21.60
2024-05-09T11:01:06.954Z,21.50
2024-05-09T11:03:35.834Z,20.70
2024-05-09T11:06:03.982Z,20.90
2024-05-09T11:08:32.952Z,21.10
2024-05-09T11:11:00.701Z,21.50
2024-05-09T11:13:31.732Z,22.10
2024-05-09T11:16:03.462Z,22.40
2024-05-09T11:18:35.566Z,22.00
2024-05-09T11:21:15.389Z,21.50
2024-05-09T11:23:42.796Z,21.80
2024-05-09T11:26:11.189Z,22.40
2024-05-09T11:28:39.522Z,22.10
2024-05-09T11:31:08.902Z,21.30
2024-05-09T11:33:38.934Z,20.40
2024-05-09T11:36:07.489Z,19.50
2024-05-09T11:38:34.707Z,19.40
2024-05-09T11:41:04.763Z,19.80
2024-05-09T11:43:32.483Z,20.20
2024-05-09T11:46:00.527Z,20.80
2024-05-09T11:48:28.233Z,20.80
2024-05-09T11:50:57.191Z,20.00
2024-05-09T11:53:24.505Z,19.70
2024-05-09T11:55:51.691Z,19.80
2024-05-09T11:58:19.607Z,20.60
2024-05-09T12:00:47.381Z,21.20
2024-05-09T12:03:15.101Z,21.60
2024-05-09T12:05:42.674Z,22.00
2024-05-09T12:08:10.159Z,22.20
2024-05-09T12:10:37.827Z,22.00
2024-05-09T12:13:06.813Z,22.10
2024-05-09T12:15:37.888Z,21.90
2024-05-09T12:18:07.429Z,21.80
2024-05-09T12:20:38.607Z,21.80
2024-05-09T12:23:09.491Z,21.60
2024-05-09T12:25:40.495Z,21.10
2024-05-09T12:28:08.727Z,21.20
2024-05-09T12:30:40.147Z,21.30
2024-05-09T12:33:12.743Z,21.50
2024-05-09T12:35:43.446Z,21.70
2024-05-09T12:38:13.050Z,21.80
2024-05-09T12:40:40.364Z,21.90
2024-05-09T12:43:09.094Z,22.40
2024-05-09T12:45:37.933Z,22.30
2024-05-09T12:48:08.515Z,22.30
2024-05-09T12:50:37.005Z,22.50
2024-05-09T12:53:05.191Z,22.80
2024-05-09T12:55:41.157Z,22.80
2024-05-09T12:58:17.553Z,22.60
2024-05-09T13:00:45.560Z,22.80
2024-05-09T13:03:13.342Z,22.90
2024-05-09T13:05:45.365Z,23.00
2024-05-09T13:08:13.625Z,22.80
2024-05-09T13:10:41.334Z,21.90
2024-05-09T13:13:12.330Z,21.20
2024-05-09T13:15:39.978Z,20.80
2024-05-09T13:18:07.972Z,21.00
2024-05-09T13:20:36.948Z,21.30
2024-05-09T13:23:07.048Z,21.60
2024-05-09T13:25:35.415Z,21.90
2024-05-09T13:28:04.134Z,22.30
2024-05-09T13:30:39.175Z,22.60
2024-05-09T13:33:13.840Z,22.50
2024-05-09T13:35:47.090Z,21.90
2024-05-09T13:38:18.717Z,20.80
2024-05-09T13:40:46.416Z,20.30
2024-05-09T13:43:14.261Z,20.10
2024-05-09T13:45:41.739Z,20.40
2024-05-09T13:48:10.348Z,20.50
2024-05-09T13:50:37.877Z,20.90
2024-05-09T13:53:06.915Z,21.60
2024-05-09T13:55:37.403Z,21.90
2024-05-09T13:58:05.066Z,22.10
2024-05-09T14:00:43.844Z,21.90
2024-05-09T14:03:16.961Z,21.40
2024-05-09T14:05:46.609Z,20.70
2024-05-09T14:08:16.079Z,20.60
2024-05-09T14:10:46.598Z,20.40
2024-05-09T14:13:14.893Z,20.20
2024-05-09T14:15:42.553Z,20.60
2024-05-09T14:18:13.092Z,21.20
2024-05-09T14:20:42.024Z,21.70
2024-05-09T14:23:09.394Z,22.20
2024-05-09T14:25:39.787Z,22.50
2024-05-09T14:28:09.578Z,22.40
2024-05-09T14:30:38.492Z,22.30
2024-05-09T14:33:08.006Z,21.70
2024-05-09T14:35:37.636Z,21.00
2024-05-09T14:38:06.383Z,20.60
2024-05-09T14:40:40.748Z,20.40
2024-05-09T14:43:15.434Z,20.60
2024-05-09T14:45:44.047Z,20.90
2024-05-09T14:48:14.319Z,21.10
2024-05-09T14:50:42.207Z,21.30
2024-05-09T14:53:11.057Z,21.20
2024-05-09T14:55:40.316Z,21.20
2024-05-09T14:58:09.825Z,20.70
2024-05-09T15:00:42.263Z,20.40
2024-05-09T15:03:12.174Z,20.10
2024-05-09T15:05:39.494Z,19.80
2024-05-09T15:08:08.159Z,19.50
2024-05-09T15:10:36.940Z,19.60
2024-05-09T15:13:07.315Z,19.90
2024-05-09T15:15:36.586Z,20.20
2024-05-09T15:18:07.577Z,20.50
2024-05-09T15:20:37.103Z,20.70
2024-05-09T15:23:07.058Z,20.60
2024-05-09T15:25:36.836Z,20.60
2024-05-09T15:28:07.954Z,20.60
2024-05-09T15:30:35.796Z,20.70
2024-05-09T15:33:04.097Z,20.70
2024-05-09T15:35:32.075Z,20.90
2024-05-09T15:38:00.375Z,20.80
2024-05-09T15:40:36.223Z,20.70
2024-05-09T15:43:09.900Z,20.70
2024-05-09T15:45:39.281Z,20.70
2024-05-09T15:48:08.174Z,20.70
2024-05-09T15:50:40.756Z,20.60
2024-05-09T15:53:11.583Z,20.40
2024-05-09T15:55:39.586Z,20.20
2024-05-09T15:58:07.656Z,20.00
2024-05-09T16:00:39.577Z,19.90
2024-05-09T16:03:14.611Z,19.90
2024-05-09T16:05:46.915Z,19.90
2024-05-09T16:08:15.852Z,19.80
2024-05-09T16:10:46.146Z,19.80
2024-05-09T16:13:14.944Z,19.80
2024-05-09T16:15:43.909Z,19.80
2024-05-09T16:18:12.081Z,19.70
2024-05-09T16:20:41.697Z,19.70
2024-05-09T16:23:11.188Z,19.70
2024-05-09T16:25:39.160Z,19.70
2024-05-09T16:28:09.880Z,19.60
2024-05-09T16:30:39.852Z,19.50
2024-05-09T16:33:08.618Z,19.40
2024-05-09T16:35:37.401Z,19.30
2024-05-09T16:38:06.226Z,19.30
2024-05-09T16:40:38.452Z,19.20
2024-05-09T16:43:09.272Z,19.00
2024-05-09T16:45:37.915Z,19.00
2024-05-09T16:48:08.068Z,18.90
2024-05-09T16:50:36.240Z,18.80
2024-05-09T16:53:05.639Z,18.70
2024-05-09T16:55:33.999Z,18.60
2024-05-09T16:58:02.763Z,18.60
2024-05-09T17:00:42.326Z,18.60
2024-05-09T17:03:14.232Z,18.60
2024-05-09T17:05:43.352Z,18.50
2024-05-09T17:08:11.189Z,18.50
2024-05-09T17:10:38.609Z,18.50
2024-05-09T17:13:07.405Z,18.50
2024-05-09T17:15:37.000Z,18.50
2024-05-09T17:18:06.711Z,18.30
2024-05-09T17:20:36.768Z,18.20
2024-05-09T17:23:13.325Z,18.20
2024-05-09T17:25:42.046Z,18.10
2024-05-09T17:28:10.503Z,18.10
2024-05-09T17:30:39.942Z,18.00
2024-05-09T17:33:10.248Z,17.90
2024-05-09T17:35:38.902Z,17.80
2024-05-09T17:38:06.991Z,17.70
2024-05-09T17:40:36.822Z,17.60
2024-05-09T17:43:10.547Z,17.60
2024-05-09T17:45:40.363Z,17.50
2024-05-09T17:48:10.417Z,17.50
2024-05-09T17:50:39.337Z,17.40
2024-05-09T17:53:07.268Z,17.40
2024-05-09T17:55:35.524Z,17.30
2024-05-09T17:58:04.618Z,17.20
2024-05-09T18:00:38.068Z,17.10
2024-05-09T18:03:10.691Z,17.10
2024-05-09T18:05:38.636Z,17.00
2024-05-09T18:08:07.292Z,17.00
2024-05-09T18:10:38.171Z,16.90
2024-05-09T18:13:10.720Z,16.80
2024-05-09T18:15:38.677Z,16.70
2024-05-09T18:18:07.183Z,16.70
2024-05-09T18:20:43.111Z,16.50
2024-05-09T18:23:17.839Z,16.40
2024-05-09T18:25:47.149Z,16.30
2024-05-09T18:28:15.938Z,16.20
2024-05-09T18:30:43.548Z,16.00
2024-05-09T18:33:11.679Z,15.90
2024-05-09T18:35:41.206Z,15.70
2024-05-09T18:38:09.440Z,15.60
2024-05-09T18:40:38.520Z,15.50
2024-05-09T18:43:08.641Z,15.40
2024-05-09T18:45:37.952Z,15.20
2024-05-09T18:48:07.225Z,15.00
2024-05-09T18:50:39.107Z,14.80
2024-05-09T18:53:10.577Z,14.60
2024-05-09T18:55:38.515Z,14.50
2024-05-09T18:58:06.023Z,14.40
2024-05-09T19:00:37.083Z,14.20
2024-05-09T19:03:12.860Z,14.10
2024-05-09T19:05:43.732Z,13.90
2024-05-09T19:08:12.763Z,13.70
2024-05-09T19:10:40.502Z,13.60
2024-05-09T19:13:11.970Z,13.40
2024-05-09T19:15:42.485Z,13.40
2024-05-09T19:18:11.256Z,13.30
2024-05-09T19:20:39.497Z,13.20
2024-05-09T19:23:07.823Z,13.10
2024-05-09T19:25:37.322Z,13.00
2024-05-09T19:28:05.627Z,12.90
2024-05-09T19:30:39.028Z,12.90
2024-05-09T19:33:11.141Z,12.80
2024-05-09T19:35:39.566Z,12.70
2024-05-09T19:38:07.050Z,12.70
2024-05-09T19:40:35.323Z,12.70
2024-05-09T19:43:04.240Z,12.70
2024-05-09T19:45:35.790Z,12.60
2024-05-09T19:48:04.243Z,12.60
2024-05-09T19:50:39.872Z,12.60
2024-05-09T19:53:11.441Z,12.50
2024-05-09T19:55:39.136Z,12.50
2024-05-09T19:58:07.896Z,12.40
2024-05-09T20:00:41.501Z,12.40
2024-05-09T20:03:12.536Z,12.40
2024-05-09T20:05:40.389Z,12.30
2024-05-09T20:08:07.985Z,12.10
2024-05-09T20:10:36.463Z,12.10
2024-05-09T20:13:06.980Z,12.10
2024-05-09T20:15:37.088Z,12.00
2024-05-09T20:18:05.311Z,11.90
2024-05-09T20:20:39.023Z,11.80
2024-05-09T20:23:09.993Z,11.70
2024-05-09T20:25:37.365Z,11.60
2024-05-09T20:28:06.781Z,11.50
2024-05-09T20:30:35.185Z,11.50
2024-05-09T20:33:05.222Z,11.40
2024-05-09T20:35:33.913Z,11.30
2024-05-09T20:38:02.644Z,11.30
2024-05-09T20:40:34.742Z,11.10
2024-05-09T20:43:05.889Z,11.00
2024-05-09T20:45:33.663Z,10.90
2024-05-09T20:48:04.868Z,10.80
2024-05-09T20:50:40.401Z,10.70
2024-05-09T20:53:11.539Z,10.70
2024-05-09T20:55:40.459Z,10.70
2024-05-09T20:58:08.429Z,10.70
2024-05-09T21:00:40.308Z,10.70
2024-05-09T21:03:12.698Z,10.60
2024-05-09T21:05:41.050Z,10.60
2024-05-09T21:08:08.871Z,10.60
2024-05-09T21:10:37.221Z,10.60
2024-05-09T21:13:06.287Z,10.50
2024-05-09T21:15:34.421Z,10.50
2024-05-09T21:18:02.058Z,10.30
2024-05-09T21:20:32.922Z,10.20
2024-05-09T21:23:01.895Z,10.20
2024-05-09T21:25:29.684Z,10.10
2024-05-09T21:27:57.306Z,10.10
2024-05-09T21:32:54.926Z,10.00
2024-05-09T21:35:22.125Z,9.90
2024-05-09T21:37:49.371Z,9.80
2024-05-09T21:40:26.663Z,9.80
2024-05-09T21:43:00.339Z,9.80
2024-05-09T21:45:27.603Z,9.70
2024-05-09T21:47:54.960Z,9.70
2024-05-09T21:50:28.373Z,9.70
2024-05-09T21:53:03.338Z,9.70
2024-05-09T21:55:30.578Z,9.60
2024-05-09T21:57:57.726Z,9.50
2024-05-09T22:00:32.884Z,9.40
2024-05-09T22:03:04.530Z,9.40
2024-05-09T22:08:20.413Z,9.30
2024-05-09T22:10:48.878Z,9.30
2024-05-09T22:13:18.923Z,9.30
2024-05-09T22:15:46.308Z,9.30
2024-05-09T22:18:13.645Z,9.40
2024-05-09T22:20:45.409Z,9.40
2024-05-09T22:23:13.828Z,9.30
2024-05-09T22:25:41.318Z,9.20
2024-05-09T22:28:09.034Z,9.10
2024-05-09T22:30:39.276Z,9.20
2024-05-09T22:33:09.877Z,9.20
2024-05-09T22:35:38.927Z,9.10
2024-05-09T22:38:06.207Z,9.00
2024-05-09T22:40:42.965Z,9.00
2024-05-09T22:43:24.084Z,9.00
2024-05-09T22:45:54.181Z,8.90
2024-05-09T22:48:22.018Z,8.90
2024-05-09T22:50:49.348Z,8.90
2024-05-09T22:53:16.550Z,9.10
2024-05-09T22:55:43.795Z,9.00
2024-05-09T22:58:11.292Z,9.00
2024-05-09T23:00:38.661Z,9.10
2024-05-09T23:03:06.457Z,9.10
2024-05-09T23:05:33.683Z,9.10
2024-05-09T23:08:02.049Z,9.10
2024-05-09T23:10:35.686Z,9.00
2024-05-09T23:13:05.817Z,9.00
2024-05-09T23:15:33.074Z,8.90
2024-05-09T23:18:00.449Z,8.90
2024-05-09T23:20:35.427Z,8.80
2024-05-09T23:23:10.158Z,8.70
2024-05-09T23:25:38.544Z,8.60
2024-05-09T23:28:06.352Z,8.50
2024-05-09T23:30:38.116Z,8.40
2024-05-09T23:33:09.698Z,8.40
2024-05-09T23:35:37.359Z,8.50
2024-05-09T23:38:04.856Z,8.50
2024-05-09T23:43:02.643Z,8.40
2024-05-09T23:45:29.910Z,8.40
2024-05-09T23:47:57.264Z,8.30
2024-05-09T23:50:33.075Z,8.30
2024-05-09T23:53:03.665Z,8.30
2024-05-09T23:55:31.951Z,8.30
2024-05-09T23:57:59.641Z,8.20
